createdAt,value
2023-02-10T00:01:53.562Z,8.93
2023-02-10T00:04:20.690Z,7.85
2023-02-10T00:06:47.588Z,8.02
2023-02-10T00:09:16.160Z,8.75
2023-02-10T00:12:00.904Z,7.97
2023-02-10T00:14:29.816Z,8.02
2023-02-10T00:16:58.262Z,8.00
2023-02-10T00:19:27.160Z,8.20
2023-02-10T00:21:54.504Z,8.02
2023-02-10T00:24:22.373Z,7.80
2023-02-10T00:26:50.040Z,8.35
2023-02-10T00:29:17.078Z,7.97
2023-02-10T00:31:44.786Z,8.13
2023-02-10T00:34:18.403Z,7.97
2023-02-10T00:36:46.453Z,7.13
2023-02-10T00:39:15.137Z,8.07
2023-02-10T00:41:42.331Z,8.52
2023-02-10T00:44:10.060Z,7.90
2023-02-10T00:46:37.419Z,8.07
2023-02-10T00:49:06.097Z,9.18
2023-02-10T00:51:35.645Z,9.00
2023-02-10T00:54:02.640Z,9.02
2023-02-10T00:56:29.747Z,7.45
2023-02-10T00:58:57.893Z,8.57
2023-02-10T01:01:25.016Z,7.85
2023-02-10T01:03:51.984Z,8.05
2023-02-10T01:06:18.963Z,9.20
2023-02-10T01:08:46.098Z,8.75
2023-02-10T01:11:14.274Z,8.68
2023-02-10T01:13:42.949Z,7.65
2023-02-10T01:16:14.708Z,7.80
2023-02-10T01:18:42.517Z,8.60
2023-02-10T01:21:11.347Z,8.10
2023-02-10T01:23:38.411Z,7.72
2023-02-10T01:26:05.667Z,8.27
2023-02-10T01:28:33.100Z,7.95
2023-02-10T01:31:04.890Z,8.52
2023-02-10T01:33:31.874Z,8.60
2023-02-10T01:35:58.804Z,8.15
2023-02-10T01:38:25.840Z,8.07
2023-02-10T01:40:52.769Z,9.07
2023-02-10T01:43:20.572Z,7.88
2023-02-10T01:45:47.961Z,7.70
2023-02-10T01:48:15.803Z,9.02
2023-02-10T01:50:51.823Z,9.07
2023-02-10T01:55:49.962Z,9.80
2023-02-10T01:58:21.543Z,10.93
2023-02-10T02:00:48.881Z,9.95
2023-02-10T02:03:16.319Z,8.95
2023-02-10T02:05:44.911Z,9.98
2023-02-10T02:08:15.008Z,10.55
2023-02-10T02:10:47.762Z,10.40
2023-02-10T02:13:43.754Z,8.85
2023-02-10T02:16:50.441Z,9.20
2023-02-10T02:20:15.313Z,9.88
2023-02-10T02:23:17.583Z,9.55
2023-02-10T02:25:57.428Z,8.80
2023-02-10T02:28:24.711Z,10.40
2023-02-10T02:31:17.692Z,8.88
2023-02-10T02:34:19.582Z,8.52
2023-02-10T02:36:58.360Z,9.93
2023-02-10T02:39:25.342Z,9.15
2023-02-10T02:42:16.260Z,10.35
2023-02-10T02:44:46.538Z,8.50
2023-02-10T02:47:30.713Z,8.15
2023-02-10T02:50:17.651Z,10.20
2023-02-10T02:52:57.688Z,9.00
2023-02-10T02:55:33.597Z,9.20
2023-02-10T02:58:41.693Z,9.00
2023-02-10T03:01:30.000Z,9.00
2023-02-10T03:03:59.167Z,7.97
2023-02-10T03:06:26.427Z,8.82
2023-02-10T03:08:54.214Z,8.70
2023-02-10T03:11:21.352Z,8.82
2023-02-10T03:13:49.020Z,8.68
2023-02-10T03:16:18.448Z,8.98
2023-02-10T03:18:45.536Z,9.02
2023-02-10T03:21:12.655Z,9.10
2023-02-10T03:23:39.610Z,9.07
2023-02-10T03:26:06.739Z,9.52
2023-02-10T03:28:33.807Z,11.15
2023-02-10T03:31:06.295Z,9.95
2023-02-10T03:33:38.249Z,10.32
2023-02-10T03:36:06.591Z,9.88
2023-02-10T03:38:34.949Z,10.23
2023-02-10T03:41:02.083Z,10.13
2023-02-10T03:43:29.188Z,11.05
2023-02-10T03:45:56.662Z,9.98
2023-02-10T03:48:28.016Z,10.77
2023-02-10T03:50:54.992Z,11.13
2023-02-10T03:53:22.212Z,10.57
2023-02-10T03:55:54.306Z,9.95
2023-02-10T03:58:37.012Z,11.65
2023-02-10T04:01:13.139Z,11.40
2023-02-10T04:03:41.898Z,11.23
2023-02-10T04:06:12.058Z,11.90
2023-02-10T04:08:40.074Z,11.70
2023-02-10T04:11:09.065Z,12.07
2023-02-10T04:13:37.045Z,12.00
2023-02-10T04:16:06.447Z,11.93
2023-02-10T04:18:37.108Z,10.77
2023-02-10T04:21:05.440Z,12.85
2023-02-10T04:23:32.916Z,14.57
2023-02-10T04:26:00.517Z,14.43
2023-02-10T04:28:28.134Z,13.77
2023-02-10T04:30:56.807Z,13.18
2023-02-10T04:33:25.994Z,12.70
2023-02-10T04:35:54.635Z,12.20
2023-02-10T04:38:22.336Z,11.85
2023-02-10T04:40:49.276Z,13.60
2023-02-10T04:43:16.813Z,12.80
2023-02-10T04:45:43.858Z,13.65
2023-02-10T04:48:11.060Z,14.15
2023-02-10T04:50:38.602Z,14.90
2023-02-10T04:53:07.101Z,13.70
2023-02-10T04:55:35.078Z,13.63
2023-02-10T04:58:02.333Z,14.75
2023-02-10T05:00:29.506Z,15.40
2023-02-10T05:02:56.860Z,14.45
2023-02-10T05:05:25.895Z,14.07
2023-02-10T05:07:53.764Z,12.88
2023-02-10T05:10:21.219Z,13.05
2023-02-10T05:12:48.774Z,13.32
2023-02-10T05:15:17.244Z,13.77
2023-02-10T05:17:44.362Z,13.23
2023-02-10T05:20:11.757Z,14.73
2023-02-10T05:22:40.249Z,12.65
2023-02-10T05:25:08.197Z,14.82
2023-02-10T05:27:36.308Z,14.73
2023-02-10T05:30:07.213Z,12.25
2023-02-10T05:32:34.636Z,13.80
2023-02-10T05:35:01.661Z,13.85
2023-02-10T05:37:28.660Z,14.55
2023-02-10T05:39:55.787Z,14.43
2023-02-10T05:42:22.828Z,13.88
2023-02-10T05:44:49.984Z,12.45
2023-02-10T05:47:16.919Z,13.40
2023-02-10T05:49:43.889Z,13.40
2023-02-10T05:52:10.885Z,12.93
2023-02-10T05:54:37.949Z,12.73
2023-02-10T05:57:05.088Z,13.00
2023-02-10T05:59:32.039Z,12.43
2023-02-10T06:01:59.350Z,12.95
2023-02-10T06:04:26.526Z,13.85
2023-02-10T06:06:53.549Z,15.15
2023-02-10T06:09:23.728Z,16.23
2023-02-10T06:11:54.122Z,17.80
2023-02-10T06:14:21.347Z,19.17
2023-02-10T06:16:48.427Z,20.30
2023-02-10T06:19:15.409Z,18.38
2023-02-10T06:21:42.319Z,18.23
2023-02-10T06:24:10.788Z,19.67
2023-02-10T06:26:37.832Z,19.35
2023-02-10T06:29:04.791Z,20.02
2023-02-10T06:31:31.947Z,20.17
2023-02-10T06:33:59.052Z,21.42
2023-02-10T06:36:26.174Z,21.65
2023-02-10T06:38:53.132Z,20.33
2023-02-10T06:41:20.130Z,19.30
2023-02-10T06:43:47.186Z,19.20
2023-02-10T06:46:16.679Z,19.15
2023-02-10T06:48:43.726Z,20.10
2023-02-10T06:51:10.710Z,19.20
2023-02-10T06:53:39.396Z,19.30
2023-02-10T06:56:06.971Z,18.83
2023-02-10T06:58:33.861Z,19.38
2023-02-10T07:01:01.982Z,21.35
2023-02-10T07:03:29.986Z,18.88
2023-02-10T07:05:56.981Z,20.05
2023-02-10T07:08:24.009Z,20.30
2023-02-10T07:10:51.215Z,21.77
2023-02-10T07:13:18.374Z,22.90
2023-02-10T07:15:45.304Z,21.98
2023-02-10T07:18:12.239Z,21.40
2023-02-10T07:20:39.472Z,22.75
2023-02-10T07:23:06.866Z,20.80
2023-02-10T07:25:33.991Z,21.70
2023-02-10T07:28:00.980Z,21.08
2023-02-10T07:30:28.017Z,23.05
2023-02-10T07:32:55.831Z,20.92
2023-02-10T07:35:23.586Z,18.88
2023-02-10T07:37:50.737Z,18.80
2023-02-10T07:40:17.712Z,18.90
2023-02-10T07:42:44.697Z,22.73
2023-02-10T07:45:38.450Z,21.27
2023-02-10T07:48:05.437Z,19.83
2023-02-10T07:50:34.552Z,19.98
2023-02-10T07:53:01.837Z,21.77
2023-02-10T07:55:28.788Z,18.98
2023-02-10T07:57:55.791Z,21.23
2023-02-10T08:00:22.876Z,20.58
2023-02-10T08:02:49.836Z,19.80
2023-02-10T08:05:17.182Z,22.98
2023-02-10T08:07:44.238Z,21.45
2023-02-10T08:10:11.173Z,21.58
2023-02-10T08:12:38.332Z,23.50
2023-02-10T08:15:06.879Z,26.02
2023-02-10T08:17:34.068Z,23.08
2023-02-10T08:20:01.085Z,23.63
2023-02-10T08:22:28.210Z,24.92
2023-02-10T08:24:55.171Z,23.45
2023-02-10T08:27:22.170Z,23.40
2023-02-10T08:29:49.119Z,26.15
2023-02-10T08:32:19.954Z,25.52
2023-02-10T08:34:48.113Z,27.75
2023-02-10T08:37:16.026Z,25.80
2023-02-10T08:39:43.471Z,25.42
2023-02-10T08:42:10.720Z,26.08
2023-02-10T08:44:37.850Z,25.80
2023-02-10T08:47:05.145Z,26.10
2023-02-10T08:49:32.083Z,25.65
2023-02-10T08:51:59.039Z,26.77
2023-02-10T08:54:26.324Z,24.73
2023-02-10T08:56:56.356Z,25.30
2023-02-10T08:59:24.020Z,26.30
2023-02-10T09:01:51.448Z,26.65
2023-02-10T09:04:19.454Z,26.10
2023-02-10T09:06:46.831Z,25.98
2023-02-10T09:09:20.623Z,25.17
2023-02-10T09:11:48.255Z,26.70
2023-02-10T09:14:15.501Z,24.73
2023-02-10T09:16:42.539Z,24.90
2023-02-10T09:19:10.118Z,25.13
2023-02-10T09:21:47.073Z,23.83
2023-02-10T09:24:15.252Z,25.83
2023-02-10T09:26:42.280Z,27.00
2023-02-10T09:29:09.331Z,25.98
2023-02-10T09:31:36.944Z,25.40
2023-02-10T09:34:04.951Z,26.13
2023-02-10T09:36:32.575Z,27.13
2023-02-10T09:38:59.596Z,26.42
2023-02-10T09:41:45.862Z,25.48
2023-02-10T09:44:23.311Z,26.90
2023-02-10T09:46:56.721Z,26.02
2023-02-10T09:49:48.596Z,26.30
2023-02-10T09:52:21.310Z,26.75
2023-02-10T09:54:48.535Z,27.77
2023-02-10T09:57:33.841Z,25.15
2023-02-10T10:00:02.632Z,25.27
2023-02-10T10:02:51.349Z,25.60
2023-02-10T10:05:43.344Z,24.58
2023-02-10T10:08:23.315Z,27.63
2023-02-10T10:10:51.579Z,26.73
2023-02-10T10:13:25.830Z,29.25
2023-02-10T10:16:31.808Z,26.98
2023-02-10T10:19:24.162Z,24.95
2023-02-10T10:22:20.191Z,25.23
2023-02-10T10:25:21.447Z,25.77
2023-02-10T10:28:25.897Z,25.25
2023-02-10T10:31:00.627Z,24.45
2023-02-10T10:33:48.934Z,24.45
2023-02-10T10:36:19.053Z,24.42
2023-02-10T10:39:18.109Z,24.17
2023-02-10T10:41:46.318Z,24.45
2023-02-10T10:44:18.377Z,26.55
2023-02-10T10:46:53.508Z,24.92
2023-02-10T10:49:20.644Z,25.17
2023-02-10T10:51:49.220Z,24.83
2023-02-10T10:54:20.834Z,26.17
2023-02-10T10:56:57.789Z,25.77
2023-02-10T10:59:42.216Z,26.92
2023-02-10T11:02:20.794Z,27.10
2023-02-10T11:05:00.468Z,23.52
2023-02-10T11:07:29.426Z,24.95
2023-02-10T11:09:56.833Z,23.58
2023-02-10T11:12:37.910Z,24.63
2023-02-10T11:15:26.702Z,22.30
2023-02-10T11:17:55.459Z,22.83
2023-02-10T11:20:32.000Z,23.40
2023-02-10T11:23:01.962Z,25.10
2023-02-10T11:25:31.561Z,26.75
2023-02-10T11:28:00.255Z,26.73
2023-02-10T11:30:29.963Z,26.10
2023-02-10T11:32:57.992Z,25.58
2023-02-10T11:35:26.167Z,25.42
2023-02-10T11:38:07.002Z,23.45
2023-02-10T11:40:57.507Z,23.80
2023-02-10T11:43:33.862Z,24.42
2023-02-10T11:46:05.086Z,26.60
2023-02-10T11:48:32.251Z,24.65
2023-02-10T11:51:17.014Z,27.27
2023-02-10T11:53:45.958Z,26.13
2023-02-10T11:56:24.043Z,26.48
2023-02-10T11:59:26.149Z,25.00
2023-02-10T12:02:02.585Z,27.13
2023-02-10T12:04:56.893Z,26.80
2023-02-10T12:07:35.392Z,28.35
2023-02-10T12:10:20.058Z,29.35
2023-02-10T12:13:38.789Z,25.67
2023-02-10T12:16:24.153Z,23.83
2023-02-10T12:19:15.450Z,26.17
2023-02-10T12:22:00.345Z,26.45
2023-02-10T12:24:39.676Z,24.95
2023-02-10T12:27:22.433Z,24.50
2023-02-10T12:29:56.950Z,26.23
2023-02-10T12:32:40.635Z,23.58
2023-02-10T12:35:31.320Z,24.50
2023-02-10T12:38:07.594Z,22.20
2023-02-10T12:40:45.305Z,40.70
2023-02-10T12:43:21.519Z,29.23
2023-02-10T12:46:04.333Z,27.65
2023-02-10T12:49:01.572Z,25.00
2023-02-10T12:52:13.519Z,22.80
2023-02-10T12:54:43.847Z,24.75
2023-02-10T12:57:33.759Z,23.92
2023-02-10T13:00:06.172Z,25.58
2023-02-10T13:03:11.499Z,25.45
2023-02-10T13:05:47.123Z,25.23
2023-02-10T13:08:24.572Z,23.55
2023-02-10T13:10:59.034Z,24.67
2023-02-10T13:13:27.716Z,23.90
2023-02-10T13:16:09.261Z,24.42
2023-02-10T13:19:07.837Z,24.63
2023-02-10T13:21:48.812Z,24.02
2023-02-10T13:24:24.654Z,22.23
2023-02-10T13:27:00.466Z,24.35
2023-02-10T13:29:42.757Z,23.25
2023-02-10T13:32:31.131Z,22.67
2023-02-10T13:35:01.735Z,20.55
2023-02-10T13:37:42.761Z,20.10
2023-02-10T13:40:34.441Z,20.77
2023-02-10T13:43:04.655Z,21.20
2023-02-10T13:45:34.330Z,21.17
2023-02-10T13:48:04.648Z,22.17
2023-02-10T13:50:43.769Z,22.17
2023-02-10T13:53:34.915Z,22.90
2023-02-10T13:56:25.153Z,21.17
2023-02-10T13:59:05.706Z,21.40
2023-02-10T14:01:41.821Z,19.77
2023-02-10T14:06:47.823Z,21.30
2023-02-10T14:09:30.153Z,21.67
2023-02-10T14:12:02.988Z,22.15
2023-02-10T14:14:37.129Z,23.70
2023-02-10T14:17:18.765Z,22.20
2023-02-10T14:19:48.167Z,20.25
2023-02-10T14:22:30.602Z,20.33
2023-02-10T14:25:03.716Z,17.92
2023-02-10T14:27:32.306Z,20.67
2023-02-10T14:30:23.528Z,20.65
2023-02-10T14:32:51.033Z,23.55
2023-02-10T14:35:30.758Z,19.98
2023-02-10T14:37:59.911Z,19.77
2023-02-10T14:40:30.149Z,19.20
2023-02-10T14:43:01.806Z,19.02
2023-02-10T14:45:30.288Z,22.40
2023-02-10T14:48:00.518Z,20.52
2023-02-10T14:50:32.948Z,20.95
2023-02-10T14:53:02.187Z,21.20
2023-02-10T14:55:38.286Z,21.33
2023-02-10T14:58:13.200Z,19.35
2023-02-10T15:00:42.270Z,23.52
2023-02-10T15:03:13.921Z,22.67
2023-02-10T15:05:53.493Z,22.10
2023-02-10T15:08:26.885Z,21.02
2023-02-10T15:10:56.022Z,21.50
2023-02-10T15:13:29.862Z,21.48
2023-02-10T15:15:57.932Z,22.70
2023-02-10T15:18:29.310Z,21.95
2023-02-10T15:20:59.617Z,23.27
2023-02-10T15:23:33.211Z,22.67
2023-02-10T15:26:20.695Z,22.52
2023-02-10T15:29:03.593Z,21.23
2023-02-10T15:31:31.724Z,22.17
2023-02-10T15:34:01.063Z,19.58
2023-02-10T15:36:31.643Z,21.77
2023-02-10T15:38:58.716Z,22.75
2023-02-10T15:41:33.967Z,23.23
2023-02-10T15:44:03.822Z,22.83
2023-02-10T15:46:31.948Z,20.42
2023-02-10T15:49:14.211Z,20.70
2023-02-10T15:51:47.280Z,19.70
2023-02-10T15:54:19.581Z,21.00
2023-02-10T15:57:16.019Z,17.90
2023-02-10T15:59:43.080Z,20.00
2023-02-10T16:02:14.771Z,17.73
2023-02-10T16:04:44.100Z,17.35
2023-02-10T16:07:18.470Z,16.13
2023-02-10T16:09:45.603Z,16.85
2023-02-10T16:12:12.671Z,16.70
2023-02-10T16:14:39.824Z,17.63
2023-02-10T16:17:07.981Z,18.35
2023-02-10T16:19:35.600Z,16.00
2023-02-10T16:22:02.555Z,16.40
2023-02-10T16:24:30.970Z,17.90
2023-02-10T16:26:58.602Z,17.52
2023-02-10T16:29:28.704Z,19.48
2023-02-10T16:31:55.770Z,18.80
2023-02-10T16:34:22.963Z,16.25
2023-02-10T16:36:50.829Z,15.77
2023-02-10T16:39:20.748Z,15.55
2023-02-10T16:41:49.424Z,16.90
2023-02-10T16:44:16.810Z,17.15
2023-02-10T16:46:44.131Z,17.42
2023-02-10T16:49:12.819Z,15.95
2023-02-10T16:51:39.948Z,15.68
2023-02-10T16:54:10.374Z,13.52
2023-02-10T16:56:38.749Z,14.75
2023-02-10T16:59:07.081Z,14.77
2023-02-10T17:01:34.397Z,14.75
2023-02-10T17:04:02.434Z,14.30
2023-02-10T17:06:31.495Z,16.35
2023-02-10T17:08:58.659Z,15.95
2023-02-10T17:11:25.793Z,15.63
2023-02-10T17:13:52.881Z,14.55
2023-02-10T17:16:37.823Z,14.98
2023-02-10T17:19:07.033Z,13.32
2023-02-10T17:21:34.646Z,14.57
2023-02-10T17:24:01.729Z,15.07
2023-02-10T17:26:29.120Z,15.43
2023-02-10T17:28:56.010Z,15.93
2023-02-10T17:31:24.710Z,15.50
2023-02-10T17:33:52.414Z,15.90
2023-02-10T17:36:24.917Z,18.08
2023-02-10T17:38:53.112Z,17.85
2023-02-10T17:41:25.589Z,17.50
2023-02-10T17:43:55.670Z,17.45
2023-02-10T17:46:23.165Z,17.83
2023-02-10T17:48:50.131Z,16.67
2023-02-10T17:51:22.584Z,17.75
2023-02-10T17:53:51.187Z,19.20
2023-02-10T17:56:20.640Z,18.42
2023-02-10T17:58:49.115Z,16.95
2023-02-10T18:01:26.623Z,16.75
2023-02-10T18:03:55.024Z,16.67
2023-02-10T18:06:22.727Z,17.05
2023-02-10T18:08:50.061Z,16.90
2023-02-10T18:11:17.548Z,16.30
2023-02-10T18:13:45.607Z,16.58
2023-02-10T18:16:14.000Z,16.25
2023-02-10T18:18:41.057Z,16.67
2023-02-10T18:21:12.840Z,16.33
2023-02-10T18:23:40.014Z,15.60
2023-02-10T18:26:06.967Z,16.73
2023-02-10T18:28:34.012Z,17.63
2023-02-10T18:31:02.649Z,17.27
2023-02-10T18:33:30.444Z,18.65
2023-02-10T18:35:57.559Z,17.90
2023-02-10T18:38:24.935Z,17.58
2023-02-10T18:40:55.858Z,19.45
2023-02-10T18:43:23.374Z,18.00
2023-02-10T18:45:51.358Z,18.67
2023-02-10T18:48:19.981Z,18.65
2023-02-10T18:50:48.705Z,20.25
2023-02-10T18:53:17.020Z,19.98
2023-02-10T18:55:46.056Z,20.85
2023-02-10T18:58:15.111Z,21.30
2023-02-10T19:00:43.055Z,21.17
2023-02-10T19:03:11.089Z,21.55
2023-02-10T19:05:38.622Z,20.80
2023-02-10T19:08:06.427Z,21.17
2023-02-10T19:10:38.366Z,21.80
2023-02-10T19:13:05.939Z,22.80
2023-02-10T19:15:33.570Z,21.63
2023-02-10T19:18:17.436Z,21.63
2023-02-10T19:20:44.937Z,20.77
2023-02-10T19:23:12.032Z,21.20
2023-02-10T19:25:39.085Z,22.00
2023-02-10T19:28:06.464Z,22.75
2023-02-10T19:30:34.051Z,20.17
2023-02-10T19:33:01.144Z,22.08
2023-02-10T19:35:28.178Z,21.67
2023-02-10T19:37:55.210Z,24.40
2023-02-10T19:40:22.285Z,22.15
2023-02-10T19:42:49.328Z,22.60
2023-02-10T19:45:16.564Z,20.67
2023-02-10T19:47:43.719Z,22.35
2023-02-10T19:50:10.781Z,24.23
2023-02-10T19:52:39.460Z,23.45
2023-02-10T19:55:06.890Z,22.90
2023-02-10T19:57:33.941Z,21.38
2023-02-10T20:00:01.008Z,21.90
2023-02-10T20:02:28.239Z,22.35
2023-02-10T20:04:55.346Z,21.35
2023-02-10T20:07:22.509Z,20.85
2023-02-10T20:09:49.665Z,21.08
2023-02-10T20:12:16.855Z,20.25
2023-02-10T20:14:43.885Z,21.15
2023-02-10T20:17:10.943Z,19.88
2023-02-10T20:19:38.073Z,19.52
2023-02-10T20:22:05.197Z,19.90
2023-02-10T20:24:32.307Z,20.90
2023-02-10T20:26:59.224Z,19.88
2023-02-10T20:29:26.484Z,19.88
2023-02-10T20:31:53.665Z,19.70
2023-02-10T20:34:20.784Z,20.38
2023-02-10T20:36:47.830Z,18.83
2023-02-10T20:39:14.932Z,18.73
2023-02-10T20:41:41.954Z,18.52
2023-02-10T20:44:09.076Z,19.73
2023-02-10T20:46:36.323Z,19.60
2023-02-10T20:49:04.914Z,21.02
2023-02-10T20:51:33.813Z,18.80
2023-02-10T20:54:01.241Z,19.55
2023-02-10T20:56:28.389Z,21.10
2023-02-10T20:58:55.326Z,20.73
2023-02-10T21:01:22.408Z,19.98
2023-02-10T21:03:49.429Z,20.83
2023-02-10T21:06:23.318Z,19.45
2023-02-10T21:08:52.250Z,21.48
2023-02-10T21:11:22.670Z,21.70
2023-02-10T21:13:50.148Z,20.73
2023-02-10T21:16:19.806Z,22.17
2023-02-10T21:18:47.522Z,21.42
2023-02-10T21:21:16.215Z,21.65
2023-02-10T21:23:43.839Z,20.60
2023-02-10T21:26:10.962Z,21.50
2023-02-10T21:28:38.314Z,22.35
2023-02-10T21:31:14.288Z,21.13
2023-02-10T21:33:41.560Z,21.92
2023-02-10T21:36:21.834Z,21.85
2023-02-10T21:38:48.852Z,22.35
2023-02-10T21:41:35.258Z,23.45
2023-02-10T21:46:29.385Z,22.27
2023-02-10T21:48:58.310Z,21.63
2023-02-10T21:51:25.412Z,22.83
2023-02-10T21:53:52.475Z,23.30
2023-02-10T21:56:19.640Z,24.35
2023-02-10T21:58:46.654Z,23.75
2023-02-10T22:01:16.204Z,25.42
2023-02-10T22:03:43.417Z,26.00
2023-02-10T22:06:12.091Z,26.13
2023-02-10T22:08:39.115Z,25.10
2023-02-10T22:11:08.238Z,25.05
2023-02-10T22:13:36.801Z,24.40
2023-02-10T22:16:04.734Z,24.95
2023-02-10T22:18:31.841Z,25.02
2023-02-10T22:21:12.138Z,25.80
2023-02-10T22:23:39.738Z,26.80
2023-02-10T22:26:08.580Z,26.80
2023-02-10T22:28:35.832Z,26.90
2023-02-10T22:31:13.399Z,24.65
2023-02-10T22:33:40.336Z,24.77
2023-02-10T22:36:10.090Z,25.42
2023-02-10T22:38:39.565Z,27.70
2023-02-10T22:41:11.960Z,23.80
2023-02-10T22:43:42.044Z,25.88
2023-02-10T22:46:10.068Z,26.67
2023-02-10T22:48:37.365Z,26.48
2023-02-10T22:51:13.744Z,25.30
2023-02-10T22:53:41.530Z,26.98
2023-02-10T22:56:21.917Z,26.33
2023-02-10T22:58:49.290Z,24.80
2023-02-10T23:01:33.748Z,23.63
2023-02-10T23:04:01.112Z,24.15
2023-02-10T23:06:28.401Z,25.10
2023-02-10T23:08:55.684Z,23.15
2023-02-10T23:11:27.820Z,22.58
2023-02-10T23:13:54.788Z,24.83
2023-02-10T23:16:21.846Z,23.75
2023-02-10T23:18:48.974Z,23.67
2023-02-10T23:21:18.249Z,23.98
2023-02-10T23:23:45.509Z,25.10
2023-02-10T23:26:12.749Z,25.65
2023-02-10T23:28:39.821Z,23.42
2023-02-10T23:31:15.424Z,21.98
2023-02-10T23:33:42.720Z,24.27
2023-02-10T23:36:10.641Z,24.67
2023-02-10T23:38:37.729Z,23.13
2023-02-10T23:41:05.831Z,22.05
2023-02-10T23:43:32.884Z,23.05
2023-02-10T23:45:59.887Z,22.33
2023-02-10T23:48:27.061Z,22.02
2023-02-10T23:50:54.048Z,21.88
2023-02-10T23:53:21.022Z,21.90
2023-02-10T23:55:48.082Z,21.63
2023-02-10T23:58:15.112Z,21.63
